Terminal Aerodrome Forecast
Issued by NWS

Home | Current Version | Previous Version | Text Only | Print | Product List | Glossary Off
Versions: 1 2 3 4 5 6 7 8 9 10 11 12 13 14

000
FTUS43 KMPX 270526
TAFRWF
TAF
KRWF 270526Z 2706/2806 34007KT P6SM SKC
     FM271000 VRB03KT P6SM SKC
     FM271800 18007KT P6SM BKN120
     FM280000 13006KT P6SM OVC050=

USA.gov is the U.S. government's official web portal to all federal, state and local government web resources and services.